sensor_id;sensor_type;location;lat;lon;timestamp;P1;durP1;ratioP1;P2;durP2;ratioP2
13764;SDS011;6953;48.810;9.204;2023-07-22T00:00:14;0.30;;;0.30;;
13764;SDS011;6953;48.810;9.204;2023-07-22T00:02:43;0.30;;;0.30;;
13764;SDS011;6953;48.810;9.204;2023-07-22T00:05:09;0.30;;;0.30;;
13764;SDS011;6953;48.810;9.204;2023-07-22T00:07:37;0.20;;;0.20;;
13764;SDS011;6953;48.810;9.204;2023-07-22T00:10:05;0.30;;;0.30;;
13764;SDS011;6953;48.810;9.204;2023-07-22T00:12:31;0.30;;;0.30;;
13764;SDS011;6953;48.810;9.204;2023-07-22T00:14:56;0.40;;;0.40;;
13764;SDS011;6953;48.810;9.204;2023-07-22T00:17:22;0.30;;;0.30;;
13764;SDS011;6953;48.810;9.204;2023-07-22T00:19:49;0.40;;;0.40;;
13764;SDS011;6953;48.810;9.204;2023-07-22T00:22:14;0.30;;;0.30;;
13764;SDS011;6953;48.810;9.204;2023-07-22T00:24:42;0.40;;;0.40;;
13764;SDS011;6953;48.810;9.204;2023-07-22T00:27:07;0.50;;;0.50;;
13764;SDS011;6953;48.810;9.204;2023-07-22T00:29:33;0.40;;;0.40;;
13764;SDS011;6953;48.810;9.204;2023-07-22T00:31:59;0.30;;;0.30;;
13764;SDS011;6953;48.810;9.204;2023-07-22T00:34:24;0.30;;;0.30;;
13764;SDS011;6953;48.810;9.204;2023-07-22T00:36:50;0.38;;;0.38;;
13764;SDS011;6953;48.810;9.204;2023-07-22T00:39:15;0.40;;;0.40;;
13764;SDS011;6953;48.810;9.204;2023-07-22T00:41:40;0.40;;;0.40;;
13764;SDS011;6953;48.810;9.204;2023-07-22T00:44:09;0.50;;;0.50;;
13764;SDS011;6953;48.810;9.204;2023-07-22T00:46:34;0.40;;;0.40;;
13764;SDS011;6953;48.810;9.204;2023-07-22T00:48:59;0.40;;;0.40;;
13764;SDS011;6953;48.810;9.204;2023-07-22T00:51:25;0.40;;;0.40;;
13764;SDS011;6953;48.810;9.204;2023-07-22T00:53:50;0.50;;;0.50;;
13764;SDS011;6953;48.810;9.204;2023-07-22T00:56:15;0.40;;;0.40;;
13764;SDS011;6953;48.810;9.204;2023-07-22T00:58:41;0.40;;;0.40;;
13764;SDS011;6953;48.810;9.204;2023-07-22T01:01:06;0.40;;;0.40;;
13764;SDS011;6953;48.810;9.204;2023-07-22T01:03:32;0.50;;;0.50;;
13764;SDS011;6953;48.810;9.204;2023-07-22T01:05:57;0.40;;;0.40;;
13764;SDS011;6953;48.810;9.204;2023-07-22T01:08:25;0.47;;;0.47;;
13764;SDS011;6953;48.810;9.204;2023-07-22T01:10:51;0.40;;;0.40;;
13764;SDS011;6953;48.810;9.204;2023-07-22T01:13:16;0.43;;;0.43;;
13764;SDS011;6953;48.810;9.204;2023-07-22T01:15:41;0.40;;;0.40;;
13764;SDS011;6953;48.810;9.204;2023-07-22T01:18:07;0.50;;;0.50;;
13764;SDS011;6953;48.810;9.204;2023-07-22T01:20:33;0.40;;;0.40;;
13764;SDS011;6953;48.810;9.204;2023-07-22T01:22:59;0.30;;;0.30;;
13764;SDS011;6953;48.810;9.204;2023-07-22T01:25:25;0.50;;;0.50;;
13764;SDS011;6953;48.810;9.204;2023-07-22T01:27:51;0.40;;;0.40;;
13764;SDS011;6953;48.810;9.204;2023-07-22T01:30:17;0.40;;;0.40;;
13764;SDS011;6953;48.810;9.204;2023-07-22T01:32:43;0.40;;;0.40;;
13764;SDS011;6953;48.810;9.204;2023-07-22T01:35:08;0.40;;;0.40;;
13764;SDS011;6953;48.810;9.204;2023-07-22T01:37:34;0.40;;;0.40;;
13764;SDS011;6953;48.810;9.204;2023-07-22T01:40:00;0.30;;;0.30;;
13764;SDS011;6953;48.810;9.204;2023-07-22T01:42:25;0.20;;;0.20;;
13764;SDS011;6953;48.810;9.204;2023-07-22T01:44:51;0.30;;;0.30;;
13764;SDS011;6953;48.810;9.204;2023-07-22T01:47:17;0.40;;;0.40;;
13764;SDS011;6953;48.810;9.204;2023-07-22T01:49:43;0.30;;;0.30;;
13764;SDS011;6953;48.810;9.204;2023-07-22T01:52:09;0.40;;;0.40;;
13764;SDS011;6953;48.810;9.204;2023-07-22T01:54:35;0.40;;;0.40;;
13764;SDS011;6953;48.810;9.204;2023-07-22T01:57:00;0.40;;;0.40;;
13764;SDS011;6953;48.810;9.204;2023-07-22T01:59:25;0.40;;;0.40;;
13764;SDS011;6953;48.810;9.204;2023-07-22T02:01:50;0.40;;;0.40;;
13764;SDS011;6953;48.810;9.204;2023-07-22T02:04:16;0.32;;;0.32;;
13764;SDS011;6953;48.810;9.204;2023-07-22T02:06:41;0.40;;;0.40;;
13764;SDS011;6953;48.810;9.204;2023-07-22T02:09:08;0.30;;;0.30;;
13764;SDS011;6953;48.810;9.204;2023-07-22T02:11:37;0.30;;;0.30;;
13764;SDS011;6953;48.810;9.204;2023-07-22T02:14:02;0.50;;;0.50;;
13764;SDS011;6953;48.810;9.204;2023-07-22T02:16:31;0.30;;;0.30;;
13764;SDS011;6953;48.810;9.204;2023-07-22T02:18:58;0.25;;;0.25;;
13764;SDS011;6953;48.810;9.204;2023-07-22T02:21:23;0.50;;;0.50;;
13764;SDS011;6953;48.810;9.204;2023-07-22T02:23:49;0.40;;;0.40;;
13764;SDS011;6953;48.810;9.204;2023-07-22T02:26:14;0.50;;;0.50;;
13764;SDS011;6953;48.810;9.204;2023-07-22T02:28:40;0.30;;;0.30;;
13764;SDS011;6953;48.810;9.204;2023-07-22T02:31:05;0.50;;;0.50;;
13764;SDS011;6953;48.810;9.204;2023-07-22T02:33:32;0.40;;;0.40;;
13764;SDS011;6953;48.810;9.204;2023-07-22T02:35:57;0.40;;;0.40;;
13764;SDS011;6953;48.810;9.204;2023-07-22T02:38:22;0.30;;;0.30;;
13764;SDS011;6953;48.810;9.204;2023-07-22T02:40:48;0.40;;;0.40;;
13764;SDS011;6953;48.810;9.204;2023-07-22T02:43:13;0.30;;;0.30;;
13764;SDS011;6953;48.810;9.204;2023-07-22T02:45:39;0.40;;;0.40;;
13764;SDS011;6953;48.810;9.204;2023-07-22T02:48:04;0.50;;;0.50;;
13764;SDS011;6953;48.810;9.204;2023-07-22T02:50:30;0.47;;;0.47;;
13764;SDS011;6953;48.810;9.204;2023-07-22T02:52:56;0.50;;;0.50;;
13764;SDS011;6953;48.810;9.204;2023-07-22T02:55:21;0.50;;;0.50;;
13764;SDS011;6953;48.810;9.204;2023-07-22T02:57:48;0.43;;;0.43;;
13764;SDS011;6953;48.810;9.204;2023-07-22T03:00:17;0.50;;;0.50;;
13764;SDS011;6953;48.810;9.204;2023-07-22T03:02:50;0.40;;;0.40;;
13764;SDS011;6953;48.810;9.204;2023-07-22T03:05:22;0.40;;;0.40;;
13764;SDS011;6953;48.810;9.204;2023-07-22T03:07:47;0.40;;;0.40;;
13764;SDS011;6953;48.810;9.204;2023-07-22T03:10:13;0.40;;;0.40;;
13764;SDS011;6953;48.810;9.204;2023-07-22T03:12:38;0.40;;;0.40;;
13764;SDS011;6953;48.810;9.204;2023-07-22T03:15:04;0.40;;;0.40;;
13764;SDS011;6953;48.810;9.204;2023-07-22T03:17:30;0.30;;;0.30;;
13764;SDS011;6953;48.810;9.204;2023-07-22T03:19:55;0.30;;;0.30;;
13764;SDS011;6953;48.810;9.204;2023-07-22T03:22:21;0.50;;;0.50;;
13764;SDS011;6953;48.810;9.204;2023-07-22T03:24:46;0.40;;;0.40;;
13764;SDS011;6953;48.810;9.204;2023-07-22T03:27:12;0.30;;;0.30;;
13764;SDS011;6953;48.810;9.204;2023-07-22T03:29:38;0.30;;;0.30;;
13764;SDS011;6953;48.810;9.204;2023-07-22T03:32:04;0.40;;;0.40;;
13764;SDS011;6953;48.810;9.204;2023-07-22T03:34:30;0.50;;;0.50;;
13764;SDS011;6953;48.810;9.204;2023-07-22T03:36:56;0.38;;;0.38;;
13764;SDS011;6953;48.810;9.204;2023-07-22T03:39:22;0.30;;;0.30;;
13764;SDS011;6953;48.810;9.204;2023-07-22T03:41:47;0.30;;;0.30;;
13764;SDS011;6953;48.810;9.204;2023-07-22T03:44:12;0.47;;;0.47;;
13764;SDS011;6953;48.810;9.204;2023-07-22T03:46:38;0.40;;;0.40;;
13764;SDS011;6953;48.810;9.204;2023-07-22T03:49:03;0.40;;;0.40;;
13764;SDS011;6953;48.810;9.204;2023-07-22T03:51:29;0.50;;;0.50;;
13764;SDS011;6953;48.810;9.204;2023-07-22T03:53:54;0.40;;;0.40;;
13764;SDS011;6953;48.810;9.204;2023-07-22T03:56:20;0.40;;;0.40;;
13764;SDS011;6953;48.810;9.204;2023-07-22T03:58:45;0.32;;;0.32;;
13764;SDS011;6953;48.810;9.204;2023-07-22T04:01:11;0.40;;;0.40;;
13764;SDS011;6953;48.810;9.204;2023-07-22T04:03:37;0.40;;;0.40;;
13764;SDS011;6953;48.810;9.204;2023-07-22T04:06:02;0.40;;;0.40;;
13764;SDS011;6953;48.810;9.204;2023-07-22T04:08:28;0.32;;;0.32;;
13764;SDS011;6953;48.810;9.204;2023-07-22T04:10:54;0.30;;;0.30;;
13764;SDS011;6953;48.810;9.204;2023-07-22T04:13:21;0.38;;;0.38;;
13764;SDS011;6953;48.810;9.204;2023-07-22T04:15:49;0.38;;;0.38;;
13764;SDS011;6953;48.810;9.204;2023-07-22T04:18:15;0.40;;;0.40;;
13764;SDS011;6953;48.810;9.204;2023-07-22T04:20:40;0.40;;;0.40;;
13764;SDS011;6953;48.810;9.204;2023-07-22T04:23:06;0.50;;;0.50;;
13764;SDS011;6953;48.810;9.204;2023-07-22T04:25:31;0.40;;;0.40;;
13764;SDS011;6953;48.810;9.204;2023-07-22T04:27:56;0.40;;;0.40;;
13764;SDS011;6953;48.810;9.204;2023-07-22T04:30:22;0.40;;;0.40;;
13764;SDS011;6953;48.810;9.204;2023-07-22T04:32:47;0.40;;;0.40;;
13764;SDS011;6953;48.810;9.204;2023-07-22T04:35:14;0.40;;;0.40;;
13764;SDS011;6953;48.810;9.204;2023-07-22T04:37:42;0.30;;;0.30;;
13764;SDS011;6953;48.810;9.204;2023-07-22T04:40:07;0.30;;;0.30;;
13764;SDS011;6953;48.810;9.204;2023-07-22T04:42:36;0.40;;;0.40;;
13764;SDS011;6953;48.810;9.204;2023-07-22T04:45:01;0.40;;;0.40;;
13764;SDS011;6953;48.810;9.204;2023-07-22T04:47:27;0.30;;;0.30;;
13764;SDS011;6953;48.810;9.204;2023-07-22T04:49:53;0.40;;;0.40;;
13764;SDS011;6953;48.810;9.204;2023-07-22T04:52:18;0.30;;;0.30;;
13764;SDS011;6953;48.810;9.204;2023-07-22T04:54:43;0.30;;;0.30;;
13764;SDS011;6953;48.810;9.204;2023-07-22T04:57:12;0.40;;;0.40;;
13764;SDS011;6953;48.810;9.204;2023-07-22T04:59:37;0.30;;;0.30;;
13764;SDS011;6953;48.810;9.204;2023-07-22T05:02:03;0.30;;;0.30;;
13764;SDS011;6953;48.810;9.204;2023-07-22T05:04:29;0.20;;;0.20;;
13764;SDS011;6953;48.810;9.204;2023-07-22T05:06:54;0.20;;;0.20;;
13764;SDS011;6953;48.810;9.204;2023-07-22T05:09:20;0.20;;;0.20;;
13764;SDS011;6953;48.810;9.204;2023-07-22T05:11:45;0.28;;;0.28;;
13764;SDS011;6953;48.810;9.204;2023-07-22T05:14:11;0.20;;;0.20;;
13764;SDS011;6953;48.810;9.204;2023-07-22T05:16:36;0.20;;;0.20;;
13764;SDS011;6953;48.810;9.204;2023-07-22T05:19:01;0.20;;;0.20;;
13764;SDS011;6953;48.810;9.204;2023-07-22T05:21:26;0.30;;;0.30;;
13764;SDS011;6953;48.810;9.204;2023-07-22T05:23:52;0.20;;;0.20;;
13764;SDS011;6953;48.810;9.204;2023-07-22T05:26:17;0.17;;;0.17;;
13764;SDS011;6953;48.810;9.204;2023-07-22T05:28:42;0.10;;;0.10;;
13764;SDS011;6953;48.810;9.204;2023-07-22T05:31:08;0.30;;;0.30;;
13764;SDS011;6953;48.810;9.204;2023-07-22T05:33:33;0.30;;;0.30;;
13764;SDS011;6953;48.810;9.204;2023-07-22T05:35:58;0.30;;;0.30;;
13764;SDS011;6953;48.810;9.204;2023-07-22T05:38:24;0.22;;;0.22;;
13764;SDS011;6953;48.810;9.204;2023-07-22T05:40:49;0.20;;;0.20;;
13764;SDS011;6953;48.810;9.204;2023-07-22T05:43:17;0.32;;;0.32;;
13764;SDS011;6953;48.810;9.204;2023-07-22T05:45:42;0.30;;;0.30;;
13764;SDS011;6953;48.810;9.204;2023-07-22T05:48:07;0.20;;;0.20;;
13764;SDS011;6953;48.810;9.204;2023-07-22T05:50:33;0.30;;;0.30;;
13764;SDS011;6953;48.810;9.204;2023-07-22T05:52:58;0.40;;;0.40;;
13764;SDS011;6953;48.810;9.204;2023-07-22T05:55:23;0.28;;;0.28;;
13764;SDS011;6953;48.810;9.204;2023-07-22T05:57:48;0.30;;;0.30;;
13764;SDS011;6953;48.810;9.204;2023-07-22T06:00:14;0.40;;;0.40;;
13764;SDS011;6953;48.810;9.204;2023-07-22T06:02:39;0.30;;;0.30;;
13764;SDS011;6953;48.810;9.204;2023-07-22T06:05:05;0.10;;;0.10;;
13764;SDS011;6953;48.810;9.204;2023-07-22T06:07:30;0.10;;;0.10;;
13764;SDS011;6953;48.810;9.204;2023-07-22T06:09:55;0.20;;;0.20;;
13764;SDS011;6953;48.810;9.204;2023-07-22T06:12:21;0.20;;;0.20;;
13764;SDS011;6953;48.810;9.204;2023-07-22T06:14:46;0.10;;;0.10;;
13764;SDS011;6953;48.810;9.204;2023-07-22T06:17:12;0.20;;;0.20;;
13764;SDS011;6953;48.810;9.204;2023-07-22T06:19:37;0.20;;;0.20;;
13764;SDS011;6953;48.810;9.204;2023-07-22T06:22:02;0.30;;;0.30;;
13764;SDS011;6953;48.810;9.204;2023-07-22T06:24:27;0.10;;;0.10;;
13764;SDS011;6953;48.810;9.204;2023-07-22T06:26:53;0.20;;;0.20;;
13764;SDS011;6953;48.810;9.204;2023-07-22T06:29:18;0.30;;;0.30;;
13764;SDS011;6953;48.810;9.204;2023-07-22T06:31:43;0.20;;;0.20;;
13764;SDS011;6953;48.810;9.204;2023-07-22T06:34:09;0.13;;;0.13;;
13764;SDS011;6953;48.810;9.204;2023-07-22T06:36:34;0.10;;;0.10;;
13764;SDS011;6953;48.810;9.204;2023-07-22T06:38:59;0.20;;;0.20;;
13764;SDS011;6953;48.810;9.204;2023-07-22T06:41:25;0.15;;;0.15;;
13764;SDS011;6953;48.810;9.204;2023-07-22T06:43:50;0.10;;;0.10;;
13764;SDS011;6953;48.810;9.204;2023-07-22T06:46:16;0.10;;;0.10;;
13764;SDS011;6953;48.810;9.204;2023-07-22T06:48:41;0.10;;;0.10;;
13764;SDS011;6953;48.810;9.204;2023-07-22T06:51:06;0.20;;;0.20;;
13764;SDS011;6953;48.810;9.204;2023-07-22T06:53:32;0.20;;;0.20;;
13764;SDS011;6953;48.810;9.204;2023-07-22T06:55:58;0.20;;;0.20;;
13764;SDS011;6953;48.810;9.204;2023-07-22T06:58:23;0.10;;;0.10;;
13764;SDS011;6953;48.810;9.204;2023-07-22T07:00:52;0.10;;;0.10;;
13764;SDS011;6953;48.810;9.204;2023-07-22T07:03:18;0.10;;;0.10;;
13764;SDS011;6953;48.810;9.204;2023-07-22T07:05:43;0.10;;;0.10;;
13764;SDS011;6953;48.810;9.204;2023-07-22T07:08:09;0.10;;;0.10;;
13764;SDS011;6953;48.810;9.204;2023-07-22T07:10:37;0.00;;;0.00;;
13764;SDS011;6953;48.810;9.204;2023-07-22T07:13:04;0.00;;;0.00;;
13764;SDS011;6953;48.810;9.204;2023-07-22T07:15:29;0.00;;;0.00;;
13764;SDS011;6953;48.810;9.204;2023-07-22T07:17:55;0.00;;;0.00;;
13764;SDS011;6953;48.810;9.204;2023-07-22T07:20:20;0.00;;;0.00;;
13764;SDS011;6953;48.810;9.204;2023-07-22T07:22:45;0.00;;;0.00;;
13764;SDS011;6953;48.810;9.204;2023-07-22T07:25:11;0.10;;;0.10;;
13764;SDS011;6953;48.810;9.204;2023-07-22T07:27:36;0.00;;;0.00;;
13764;SDS011;6953;48.810;9.204;2023-07-22T07:30:02;0.10;;;0.10;;
13764;SDS011;6953;48.810;9.204;2023-07-22T07:32:27;0.00;;;0.00;;
13764;SDS011;6953;48.810;9.204;2023-07-22T07:34:52;0.10;;;0.10;;
13764;SDS011;6953;48.810;9.204;2023-07-22T07:37:18;0.10;;;0.10;;
13764;SDS011;6953;48.810;9.204;2023-07-22T07:39:44;0.00;;;0.00;;
13764;SDS011;6953;48.810;9.204;2023-07-22T07:42:09;0.10;;;0.10;;
13764;SDS011;6953;48.810;9.204;2023-07-22T07:44:34;0.10;;;0.10;;
13764;SDS011;6953;48.810;9.204;2023-07-22T07:46:59;0.10;;;0.10;;
13764;SDS011;6953;48.810;9.204;2023-07-22T07:49:25;0.10;;;0.10;;
13764;SDS011;6953;48.810;9.204;2023-07-22T07:51:50;0.10;;;0.10;;
13764;SDS011;6953;48.810;9.204;2023-07-22T07:54:19;0.10;;;0.10;;
13764;SDS011;6953;48.810;9.204;2023-07-22T07:56:44;0.00;;;0.00;;
13764;SDS011;6953;48.810;9.204;2023-07-22T07:59:09;0.00;;;0.00;;
13764;SDS011;6953;48.810;9.204;2023-07-22T08:01:35;0.00;;;0.00;;
13764;SDS011;6953;48.810;9.204;2023-07-22T08:04:02;0.00;;;0.00;;
13764;SDS011;6953;48.810;9.204;2023-07-22T08:06:27;0.10;;;0.10;;
13764;SDS011;6953;48.810;9.204;2023-07-22T08:08:52;0.00;;;0.00;;
13764;SDS011;6953;48.810;9.204;2023-07-22T08:11:18;0.10;;;0.10;;
13764;SDS011;6953;48.810;9.204;2023-07-22T08:13:43;0.00;;;0.00;;
13764;SDS011;6953;48.810;9.204;2023-07-22T08:16:11;0.00;;;0.00;;
13764;SDS011;6953;48.810;9.204;2023-07-22T08:18:37;0.00;;;0.00;;
13764;SDS011;6953;48.810;9.204;2023-07-22T08:21:03;0.00;;;0.00;;
13764;SDS011;6953;48.810;9.204;2023-07-22T08:23:30;0.00;;;0.00;;
13764;SDS011;6953;48.810;9.204;2023-07-22T08:25:55;0.00;;;0.00;;
13764;SDS011;6953;48.810;9.204;2023-07-22T08:28:21;0.03;;;0.03;;
13764;SDS011;6953;48.810;9.204;2023-07-22T08:30:49;0.00;;;0.00;;
13764;SDS011;6953;48.810;9.204;2023-07-22T08:33:15;0.00;;;0.00;;
13764;SDS011;6953;48.810;9.204;2023-07-22T08:35:41;0.00;;;0.00;;
13764;SDS011;6953;48.810;9.204;2023-07-22T08:38:07;0.00;;;0.00;;
13764;SDS011;6953;48.810;9.204;2023-07-22T08:40:37;0.00;;;0.00;;
13764;SDS011;6953;48.810;9.204;2023-07-22T08:43:07;0.00;;;0.00;;
13764;SDS011;6953;48.810;9.204;2023-07-22T08:45:34;0.00;;;0.00;;
13764;SDS011;6953;48.810;9.204;2023-07-22T08:48:04;0.00;;;0.00;;
13764;SDS011;6953;48.810;9.204;2023-07-22T08:50:34;0.00;;;0.00;;
13764;SDS011;6953;48.810;9.204;2023-07-22T08:53:32;0.00;;;0.00;;
13764;SDS011;6953;48.810;9.204;2023-07-22T08:56:01;0.00;;;0.00;;
13764;SDS011;6953;48.810;9.204;2023-07-22T08:58:27;0.00;;;0.00;;
13764;SDS011;6953;48.810;9.204;2023-07-22T09:00:54;0.10;;;0.10;;
13764;SDS011;6953;48.810;9.204;2023-07-22T09:03:20;0.10;;;0.10;;
13764;SDS011;6953;48.810;9.204;2023-07-22T09:05:46;0.10;;;0.10;;
13764;SDS011;6953;48.810;9.204;2023-07-22T09:08:12;0.00;;;0.00;;
13764;SDS011;6953;48.810;9.204;2023-07-22T09:10:38;0.10;;;0.10;;
13764;SDS011;6953;48.810;9.204;2023-07-22T09:13:04;0.10;;;0.10;;
13764;SDS011;6953;48.810;9.204;2023-07-22T09:15:31;0.08;;;0.08;;
13764;SDS011;6953;48.810;9.204;2023-07-22T09:17:59;0.10;;;0.10;;
13764;SDS011;6953;48.810;9.204;2023-07-22T09:20:25;0.10;;;0.10;;
13764;SDS011;6953;48.810;9.204;2023-07-22T09:22:53;0.10;;;0.10;;
13764;SDS011;6953;48.810;9.204;2023-07-22T09:25:22;0.10;;;0.10;;
13764;SDS011;6953;48.810;9.204;2023-07-22T09:27:49;0.00;;;0.00;;
13764;SDS011;6953;48.810;9.204;2023-07-22T09:30:24;0.10;;;0.10;;
13764;SDS011;6953;48.810;9.204;2023-07-22T09:32:57;0.10;;;0.10;;
13764;SDS011;6953;48.810;9.204;2023-07-22T09:35:30;0.10;;;0.10;;
13764;SDS011;6953;48.810;9.204;2023-07-22T09:38:22;0.10;;;0.10;;
13764;SDS011;6953;48.810;9.204;2023-07-22T09:40:49;0.20;;;0.20;;
13764;SDS011;6953;48.810;9.204;2023-07-22T09:43:14;0.10;;;0.10;;
13764;SDS011;6953;48.810;9.204;2023-07-22T09:45:39;0.10;;;0.10;;
13764;SDS011;6953;48.810;9.204;2023-07-22T09:48:05;0.10;;;0.10;;
13764;SDS011;6953;48.810;9.204;2023-07-22T09:50:30;0.10;;;0.10;;
13764;SDS011;6953;48.810;9.204;2023-07-22T09:52:57;0.00;;;0.00;;
13764;SDS011;6953;48.810;9.204;2023-07-22T10:02:07;0.10;;;0.10;;
13764;SDS011;6953;48.810;9.204;2023-07-22T10:04:36;0.10;;;0.10;;
13764;SDS011;6953;48.810;9.204;2023-07-22T10:07:03;0.00;;;0.00;;
13764;SDS011;6953;48.810;9.204;2023-07-22T10:09:32;0.00;;;0.00;;
13764;SDS011;6953;48.810;9.204;2023-07-22T10:12:01;0.00;;;0.00;;
13764;SDS011;6953;48.810;9.204;2023-07-22T10:14:28;0.00;;;0.00;;
13764;SDS011;6953;48.810;9.204;2023-07-22T10:16:54;0.00;;;0.00;;
13764;SDS011;6953;48.810;9.204;2023-07-22T10:19:20;0.00;;;0.00;;
13764;SDS011;6953;48.810;9.204;2023-07-22T10:21:46;0.10;;;0.10;;
13764;SDS011;6953;48.810;9.204;2023-07-22T10:24:12;0.10;;;0.10;;
13764;SDS011;6953;48.810;9.204;2023-07-22T10:26:38;0.10;;;0.10;;
13764;SDS011;6953;48.810;9.204;2023-07-22T10:29:04;0.10;;;0.10;;
13764;SDS011;6953;48.810;9.204;2023-07-22T10:31:31;0.10;;;0.10;;
13764;SDS011;6953;48.810;9.204;2023-07-22T10:33:56;0.10;;;0.10;;
13764;SDS011;6953;48.810;9.204;2023-07-22T10:36:21;0.20;;;0.20;;
13764;SDS011;6953;48.810;9.204;2023-07-22T10:38:55;0.10;;;0.10;;
13764;SDS011;6953;48.810;9.204;2023-07-22T10:41:22;0.10;;;0.10;;
13764;SDS011;6953;48.810;9.204;2023-07-22T10:43:54;0.10;;;0.10;;
13764;SDS011;6953;48.810;9.204;2023-07-22T10:46:36;0.10;;;0.10;;
13764;SDS011;6953;48.810;9.204;2023-07-22T10:51:41;0.10;;;0.10;;
13764;SDS011;6953;48.810;9.204;2023-07-22T10:54:12;0.10;;;0.10;;
13764;SDS011;6953;48.810;9.204;2023-07-22T10:56:40;0.10;;;0.10;;
13764;SDS011;6953;48.810;9.204;2023-07-22T10:59:09;0.10;;;0.10;;
13764;SDS011;6953;48.810;9.204;2023-07-22T11:01:36;0.10;;;0.10;;
13764;SDS011;6953;48.810;9.204;2023-07-22T11:09:32;0.10;;;0.10;;
13764;SDS011;6953;48.810;9.204;2023-07-22T11:12:05;0.10;;;0.10;;
13764;SDS011;6953;48.810;9.204;2023-07-22T11:14:46;0.10;;;0.10;;
13764;SDS011;6953;48.810;9.204;2023-07-22T11:17:13;0.10;;;0.10;;
13764;SDS011;6953;48.810;9.204;2023-07-22T11:19:39;0.10;;;0.10;;
13764;SDS011;6953;48.810;9.204;2023-07-22T11:22:05;0.20;;;0.20;;
13764;SDS011;6953;48.810;9.204;2023-07-22T11:24:32;0.10;;;0.10;;
13764;SDS011;6953;48.810;9.204;2023-07-22T11:27:00;0.10;;;0.10;;
13764;SDS011;6953;48.810;9.204;2023-07-22T11:29:28;0.13;;;0.13;;
13764;SDS011;6953;48.810;9.204;2023-07-22T11:31:53;0.20;;;0.20;;
13764;SDS011;6953;48.810;9.204;2023-07-22T11:34:19;0.10;;;0.10;;
13764;SDS011;6953;48.810;9.204;2023-07-22T11:36:46;0.10;;;0.10;;
13764;SDS011;6953;48.810;9.204;2023-07-22T11:39:13;0.10;;;0.10;;
13764;SDS011;6953;48.810;9.204;2023-07-22T11:41:44;0.10;;;0.10;;
13764;SDS011;6953;48.810;9.204;2023-07-22T11:44:11;0.10;;;0.10;;
13764;SDS011;6953;48.810;9.204;2023-07-22T11:46:52;0.08;;;0.08;;
13764;SDS011;6953;48.810;9.204;2023-07-22T11:49:30;0.10;;;0.10;;
13764;SDS011;6953;48.810;9.204;2023-07-22T11:52:04;0.10;;;0.10;;
13764;SDS011;6953;48.810;9.204;2023-07-22T11:54:34;0.00;;;0.00;;
13764;SDS011;6953;48.810;9.204;2023-07-22T11:57:13;0.10;;;0.10;;
13764;SDS011;6953;48.810;9.204;2023-07-22T11:59:43;0.00;;;0.00;;
13764;SDS011;6953;48.810;9.204;2023-07-22T12:02:17;0.00;;;0.00;;
13764;SDS011;6953;48.810;9.204;2023-07-22T12:04:43;0.00;;;0.00;;
13764;SDS011;6953;48.810;9.204;2023-07-22T12:07:30;0.00;;;0.00;;
13764;SDS011;6953;48.810;9.204;2023-07-22T12:09:57;0.00;;;0.00;;
13764;SDS011;6953;48.810;9.204;2023-07-22T12:12:33;0.10;;;0.10;;
13764;SDS011;6953;48.810;9.204;2023-07-22T12:15:03;0.10;;;0.10;;
13764;SDS011;6953;48.810;9.204;2023-07-22T12:20:16;0.00;;;0.00;;
13764;SDS011;6953;48.810;9.204;2023-07-22T12:22:42;0.05;;;0.05;;
13764;SDS011;6953;48.810;9.204;2023-07-22T12:25:08;0.00;;;0.00;;
13764;SDS011;6953;48.810;9.204;2023-07-22T12:27:34;0.00;;;0.00;;
13764;SDS011;6953;48.810;9.204;2023-07-22T12:29:59;0.00;;;0.00;;
13764;SDS011;6953;48.810;9.204;2023-07-22T12:32:24;0.00;;;0.00;;
13764;SDS011;6953;48.810;9.204;2023-07-22T12:34:50;0.00;;;0.00;;
13764;SDS011;6953;48.810;9.204;2023-07-22T12:37:15;0.00;;;0.00;;
13764;SDS011;6953;48.810;9.204;2023-07-22T12:39:40;0.00;;;0.00;;
13764;SDS011;6953;48.810;9.204;2023-07-22T12:42:06;0.00;;;0.00;;
13764;SDS011;6953;48.810;9.204;2023-07-22T12:44:31;0.00;;;0.00;;
13764;SDS011;6953;48.810;9.204;2023-07-22T12:46:56;0.00;;;0.00;;
13764;SDS011;6953;48.810;9.204;2023-07-22T12:49:22;0.10;;;0.10;;
13764;SDS011;6953;48.810;9.204;2023-07-22T12:51:47;0.00;;;0.00;;
13764;SDS011;6953;48.810;9.204;2023-07-22T12:54:13;0.00;;;0.00;;
13764;SDS011;6953;48.810;9.204;2023-07-22T12:56:38;0.10;;;0.10;;
13764;SDS011;6953;48.810;9.204;2023-07-22T12:59:03;0.00;;;0.00;;
13764;SDS011;6953;48.810;9.204;2023-07-22T13:01:28;0.10;;;0.10;;
13764;SDS011;6953;48.810;9.204;2023-07-22T13:03:54;0.03;;;0.03;;
13764;SDS011;6953;48.810;9.204;2023-07-22T13:06:19;0.00;;;0.00;;
13764;SDS011;6953;48.810;9.204;2023-07-22T13:15:28;0.08;;;0.08;;
13764;SDS011;6953;48.810;9.204;2023-07-22T13:17:53;0.10;;;0.10;;
13764;SDS011;6953;48.810;9.204;2023-07-22T13:20:18;0.10;;;0.10;;
13764;SDS011;6953;48.810;9.204;2023-07-22T13:22:43;0.10;;;0.10;;
13764;SDS011;6953;48.810;9.204;2023-07-22T13:25:09;0.00;;;0.00;;
13764;SDS011;6953;48.810;9.204;2023-07-22T13:27:34;0.00;;;0.00;;
13764;SDS011;6953;48.810;9.204;2023-07-22T13:30:00;0.08;;;0.08;;
13764;SDS011;6953;48.810;9.204;2023-07-22T13:32:26;0.10;;;0.10;;
13764;SDS011;6953;48.810;9.204;2023-07-22T13:34:51;0.05;;;0.05;;
13764;SDS011;6953;48.810;9.204;2023-07-22T13:37:17;0.00;;;0.00;;
13764;SDS011;6953;48.810;9.204;2023-07-22T13:39:42;0.10;;;0.10;;
13764;SDS011;6953;48.810;9.204;2023-07-22T13:42:07;0.10;;;0.10;;
13764;SDS011;6953;48.810;9.204;2023-07-22T13:44:33;0.10;;;0.10;;
13764;SDS011;6953;48.810;9.204;2023-07-22T13:46:59;0.10;;;0.10;;
13764;SDS011;6953;48.810;9.204;2023-07-22T13:49:24;0.08;;;0.08;;
13764;SDS011;6953;48.810;9.204;2023-07-22T13:51:50;0.10;;;0.10;;
13764;SDS011;6953;48.810;9.204;2023-07-22T13:54:15;0.10;;;0.10;;
13764;SDS011;6953;48.810;9.204;2023-07-22T13:56:41;0.10;;;0.10;;
13764;SDS011;6953;48.810;9.204;2023-07-22T13:59:08;0.10;;;0.10;;
13764;SDS011;6953;48.810;9.204;2023-07-22T14:01:33;0.00;;;0.00;;
13764;SDS011;6953;48.810;9.204;2023-07-22T14:03:58;0.10;;;0.10;;
13764;SDS011;6953;48.810;9.204;2023-07-22T14:06:24;0.00;;;0.00;;
13764;SDS011;6953;48.810;9.204;2023-07-22T14:08:49;0.00;;;0.00;;
13764;SDS011;6953;48.810;9.204;2023-07-22T14:11:14;0.10;;;0.10;;
13764;SDS011;6953;48.810;9.204;2023-07-22T14:13:40;0.00;;;0.00;;
13764;SDS011;6953;48.810;9.204;2023-07-22T14:16:05;0.10;;;0.10;;
13764;SDS011;6953;48.810;9.204;2023-07-22T14:18:30;0.10;;;0.10;;
13764;SDS011;6953;48.810;9.204;2023-07-22T14:20:55;0.10;;;0.10;;
13764;SDS011;6953;48.810;9.204;2023-07-22T14:23:21;0.00;;;0.00;;
13764;SDS011;6953;48.810;9.204;2023-07-22T14:25:46;0.00;;;0.00;;
13764;SDS011;6953;48.810;9.204;2023-07-22T14:28:11;0.10;;;0.10;;
13764;SDS011;6953;48.810;9.204;2023-07-22T14:30:37;0.10;;;0.10;;
13764;SDS011;6953;48.810;9.204;2023-07-22T14:33:02;0.25;;;0.25;;
13764;SDS011;6953;48.810;9.204;2023-07-22T14:35:27;0.10;;;0.10;;
13764;SDS011;6953;48.810;9.204;2023-07-22T14:37:53;0.10;;;0.10;;
13764;SDS011;6953;48.810;9.204;2023-07-22T14:40:18;0.10;;;0.10;;
13764;SDS011;6953;48.810;9.204;2023-07-22T14:42:43;0.10;;;0.10;;
13764;SDS011;6953;48.810;9.204;2023-07-22T14:45:09;0.10;;;0.10;;
13764;SDS011;6953;48.810;9.204;2023-07-22T14:47:34;0.10;;;0.10;;
13764;SDS011;6953;48.810;9.204;2023-07-22T14:50:00;0.10;;;0.10;;
13764;SDS011;6953;48.810;9.204;2023-07-22T14:52:26;0.10;;;0.10;;
13764;SDS011;6953;48.810;9.204;2023-07-22T14:54:51;0.10;;;0.10;;
13764;SDS011;6953;48.810;9.204;2023-07-22T14:57:16;0.10;;;0.10;;
13764;SDS011;6953;48.810;9.204;2023-07-22T14:59:42;0.10;;;0.10;;
13764;SDS011;6953;48.810;9.204;2023-07-22T15:02:07;0.10;;;0.10;;
13764;SDS011;6953;48.810;9.204;2023-07-22T15:04:33;0.10;;;0.10;;
13764;SDS011;6953;48.810;9.204;2023-07-22T15:06:58;0.20;;;0.20;;
13764;SDS011;6953;48.810;9.204;2023-07-22T15:09:23;0.15;;;0.15;;
13764;SDS011;6953;48.810;9.204;2023-07-22T15:11:49;0.10;;;0.10;;
13764;SDS011;6953;48.810;9.204;2023-07-22T15:14:14;0.20;;;0.20;;
13764;SDS011;6953;48.810;9.204;2023-07-22T15:16:40;0.20;;;0.20;;
13764;SDS011;6953;48.810;9.204;2023-07-22T15:19:09;0.10;;;0.10;;